Bel Aire, Kansas
Current Conditions -  °F | °C
As of 7:54 AM on Saturday 22 Nov 2014 (Local Time) from KAAO Reporting Station
Moderate Fog Moderate Fog  
Wind Chill: 43°   Ceiling: 200
Heat Index: 45°   Visibility: 0.25mi
Dew Point: 45°   Wind: 5mph
Humidity: 100%   Direction: 170°S
Pressure: 29.96"   Gusts: NA
Location:  37.7646°N, 97.2186°W
Report Text: KAAO 221354Z AUTO 17004KT 1/4SM FG VV002 07/07 A2996 RMK AO2 RAB18E30 SLP150 P0000 T00720072
Loading
Personal Weather Stations






























Interactive Weather Map New forecast layout! Learn more

10-Day Weather Forecast

Advertisements
Track Severe Weather on mobile